Time;durP1;ratioP1;P1;durP2;ratioP2;P2;SDS_P1;SDS_P2;PMS_P1;PMS_P2;Temp;Humidity;BMP_temperature;BMP_pressure;BME280_temperature;BME280_humidity;BME280_pressure;Samples;Min_cycle;Max_cycle;Signal;HPM_P1;HPM_P2
2021/01/19 00:00:22;;;;;;;33.10;21.27;;;3.40;99.90;;;;;;4896755;28;179724;-74
2021/01/19 00:02:48;;;;;;;30.20;21.13;;;3.40;99.90;;;;;;4902856;28;178337;-78
2021/01/19 00:05:15;;;;;;;39.03;22.67;;;3.30;99.90;;;;;;4897058;28;178579;-76
2021/01/19 00:07:41;;;;;;;34.10;22.97;;;3.40;99.90;;;;;;4910141;28;178019;-72
2021/01/19 00:10:07;;;;;;;36.97;22.23;;;3.40;99.90;;;;;;4905269;28;179258;-69
2021/01/19 00:12:34;;;;;;;36.40;21.57;;;3.40;99.90;;;;;;4895065;28;178228;-72
2021/01/19 00:15:00;;;;;;;32.03;21.90;;;3.40;99.90;;;;;;4892231;28;178582;-81
2021/01/19 00:17:26;;;;;;;36.47;22.37;;;3.40;99.90;;;;;;4892607;28;179939;-84
2021/01/19 00:19:53;;;;;;;30.47;20.63;;;3.40;99.90;;;;;;4898378;28;183875;-80
2021/01/19 00:22:19;;;;;;;31.77;20.67;;;3.40;99.90;;;;;;4908665;28;181554;-82
2021/01/19 00:24:45;;;;;;;31.60;21.13;;;3.40;99.90;;;;;;4904415;28;177771;-76
2021/01/19 00:27:11;;;;;;;34.23;20.97;;;3.40;99.90;;;;;;4891756;28;178857;-82
2021/01/19 00:29:37;;;;;;;31.50;20.30;;;3.50;99.90;;;;;;4900060;28;179904;-82
2021/01/19 00:32:04;;;;;;;34.30;20.63;;;3.40;99.90;;;;;;4894231;28;177986;-77
2021/01/19 00:34:30;;;;;;;31.97;20.23;;;3.40;99.90;;;;;;4910318;28;177915;-81
2021/01/19 00:36:56;;;;;;;32.93;22.07;;;3.40;99.90;;;;;;4910294;28;176452;-81
2021/01/19 00:39:24;;;;;;;40.83;22.53;;;3.40;99.90;;;;;;4907538;28;179273;-81
2021/01/19 00:41:50;;;;;;;31.03;20.80;;;3.50;99.90;;;;;;4909797;28;180799;-73
2021/01/19 00:44:16;;;;;;;30.40;19.90;;;3.40;99.90;;;;;;4892890;28;182804;-81
2021/01/19 00:46:43;;;;;;;30.87;19.57;;;3.40;99.90;;;;;;4891890;28;178223;-80
2021/01/19 00:49:09;;;;;;;32.47;20.83;;;3.40;99.90;;;;;;4902159;28;181671;-79
2021/01/19 00:51:36;;;;;;;31.00;20.33;;;3.40;99.90;;;;;;4904495;28;178051;-84
2021/01/19 00:54:05;;;;;;;28.23;19.83;;;3.40;99.90;;;;;;4891905;28;177992;-74
2021/01/19 00:56:42;;;;;;;35.27;22.27;;;3.40;99.90;;;;;;4890394;28;178340;-77
2021/01/19 00:59:12;;;;;;;31.73;19.93;;;3.30;99.90;;;;;;4899430;28;183661;-86
2021/01/19 01:01:48;;;;;;;38.57;20.10;;;3.40;99.90;;;;;;4896376;28;180775;-84
2021/01/19 01:04:14;;;;;;;33.67;20.27;;;3.60;99.90;;;;;;4903945;28;177814;-80
2021/01/19 01:06:41;;;;;;;33.70;19.73;;;3.40;99.90;;;;;;4909191;28;178169;-81
2021/01/19 01:09:07;;;;;;;27.47;19.63;;;3.40;99.90;;;;;;4904033;28;182704;-85
2021/01/19 01:11:43;;;;;;;31.40;20.30;;;3.40;99.90;;;;;;4911171;28;179952;-82
2021/01/19 01:14:11;;;;;;;32.20;20.03;;;3.40;99.90;;;;;;4900413;28;178628;-77
2021/01/19 01:16:39;;;;;;;30.20;19.97;;;3.40;99.90;;;;;;4890442;28;178374;-81
2021/01/19 01:19:06;;;;;;;35.47;20.47;;;3.40;99.90;;;;;;4904335;28;178711;-78
2021/01/19 01:21:39;;;;;;;31.77;19.57;;;3.40;99.90;;;;;;4906660;28;178045;-76
2021/01/19 01:24:06;;;;;;;32.03;20.00;;;3.40;99.90;;;;;;4896988;28;178288;-83
2021/01/19 01:26:34;;;;;;;27.00;19.07;;;3.40;99.90;;;;;;4904179;28;177481;-85
2021/01/19 01:29:01;;;;;;;29.23;20.30;;;3.40;99.90;;;;;;4899044;28;180309;-81
2021/01/19 01:31:27;;;;;;;29.67;20.73;;;3.40;99.90;;;;;;4903371;28;178642;-85
2021/01/19 01:33:53;;;;;;;30.43;19.87;;;3.60;99.90;;;;;;4900039;28;181283;-77
2021/01/19 01:36:19;;;;;;;32.90;19.53;;;3.40;99.90;;;;;;4905802;28;178296;-79
2021/01/19 01:38:46;;;;;;;33.97;19.83;;;3.40;99.90;;;;;;4895464;28;179273;-81
2021/01/19 01:41:14;;;;;;;29.13;19.33;;;3.40;99.90;;;;;;4910276;28;178169;-79
2021/01/19 01:43:41;;;;;;;36.47;20.77;;;3.40;99.90;;;;;;4902076;28;178464;-74
2021/01/19 01:46:12;;;;;;;32.77;19.87;;;3.60;99.90;;;;;;4889696;28;178098;-76
2021/01/19 01:48:40;;;;;;;29.37;19.97;;;3.40;99.90;;;;;;4889628;28;179644;-81
2021/01/19 01:51:08;;;;;;;30.40;19.50;;;3.30;99.90;;;;;;4891377;28;178233;-80
2021/01/19 01:53:37;;;;;;;32.60;19.40;;;3.40;99.90;;;;;;4909608;28;178175;-80
2021/01/19 01:56:06;;;;;;;32.93;20.53;;;3.40;99.90;;;;;;4900314;28;178530;-77
2021/01/19 01:58:33;;;;;;;35.37;19.67;;;3.40;99.90;;;;;;4907671;28;182125;-74
2021/01/19 02:00:59;;;;;;;34.27;19.03;;;3.40;99.90;;;;;;4908462;28;182093;-74
2021/01/19 02:03:26;;;;;;;30.23;18.87;;;3.40;99.90;;;;;;4894100;28;177926;-76
2021/01/19 02:05:53;;;;;;;28.83;19.43;;;3.30;99.90;;;;;;4897091;28;178016;-73
2021/01/19 02:09:06;;;;;;;30.37;18.80;;;3.40;99.90;;;;;;4891574;28;180337;-73
2021/01/19 02:11:50;;;;;;;30.50;19.07;;;3.40;99.90;;;;;;4906109;28;178323;-72
2021/01/19 02:14:34;;;;;;;32.87;20.10;;;3.40;99.90;;;;;;4888421;28;178014;-73
2021/01/19 02:17:24;;;;;;;30.13;18.43;;;3.40;99.90;;;;;;4882657;28;176735;-72
2021/01/19 02:20:13;;;;;;;29.70;18.67;;;3.40;99.90;;;;;;4892974;28;179513;-73
2021/01/19 02:22:46;;;;;;;28.27;19.20;;;3.30;99.90;;;;;;4901026;28;179927;-73
2021/01/19 02:25:19;;;;;;;31.57;19.43;;;3.30;99.90;;;;;;4890068;28;181559;-71
2021/01/19 02:28:13;;;;;;;30.43;18.50;;;3.30;99.90;;;;;;4904059;28;178003;-72
2021/01/19 02:30:54;;;;;;;29.97;19.33;;;3.30;99.90;;;;;;4897005;28;178874;-72
2021/01/19 02:33:37;;;;;;;28.17;18.83;;;3.40;99.90;;;;;;4901397;28;178656;-72
2021/01/19 02:36:29;;;;;;;34.20;19.03;;;3.30;99.90;;;;;;4906321;28;177948;-71
2021/01/19 02:38:59;;;;;;;28.33;18.73;;;3.30;99.90;;;;;;4900251;28;179267;-71
2021/01/19 02:41:26;;;;;;;29.10;19.13;;;3.30;99.90;;;;;;4909158;28;179203;-71
2021/01/19 02:44:15;;;;;;;37.43;21.07;;;3.30;99.90;;;;;;4898046;28;177596;-70
2021/01/19 02:46:41;;;;;;;27.20;18.37;;;3.30;99.90;;;;;;4887935;28;178099;-71
2021/01/19 02:49:07;;;;;;;29.27;18.17;;;3.30;99.90;;;;;;4899833;28;180587;-72
2021/01/19 02:51:33;;;;;;;28.70;18.33;;;3.30;99.90;;;;;;4901424;28;182576;-71
2021/01/19 02:54:01;;;;;;;28.07;19.17;;;3.30;99.90;;;;;;4895030;28;181749;-70
2021/01/19 02:56:55;;;;;;;31.40;19.10;;;3.30;99.90;;;;;;4900688;28;178420;-70
2021/01/19 02:59:40;;;;;;;28.07;18.10;;;3.30;99.90;;;;;;4898238;28;178192;-71
2021/01/19 03:02:19;;;;;;;27.67;18.17;;;3.30;99.90;;;;;;4888217;28;178506;-71
2021/01/19 03:04:47;;;;;;;27.63;18.50;;;3.30;99.90;;;;;;4905606;28;178428;-70
2021/01/19 03:07:15;;;;;;;26.57;18.60;;;3.30;99.90;;;;;;4906925;28;178486;-70
2021/01/19 03:09:43;;;;;;;27.37;18.03;;;3.30;99.90;;;;;;4900293;28;176445;-70
2021/01/19 03:12:13;;;;;;;28.70;19.20;;;3.30;99.90;;;;;;4897406;28;179766;-71
2021/01/19 03:14:40;;;;;;;28.23;18.37;;;3.20;99.90;;;;;;4888841;28;178651;-70
2021/01/19 03:17:07;;;;;;;26.83;18.47;;;3.30;99.90;;;;;;4887048;28;183215;-69
2021/01/19 03:19:36;;;;;;;32.20;19.17;;;3.30;99.90;;;;;;4889611;28;177853;-70
2021/01/19 03:22:03;;;;;;;30.37;18.73;;;3.30;99.90;;;;;;4896897;28;179250;-70
2021/01/19 03:24:29;;;;;;;31.13;20.03;;;3.30;99.90;;;;;;4906688;28;177780;-70
2021/01/19 03:26:55;;;;;;;33.80;19.43;;;3.30;99.90;;;;;;4907567;28;178011;-69
2021/01/19 03:29:22;;;;;;;27.23;17.90;;;3.30;99.90;;;;;;4909296;28;178581;-70
2021/01/19 03:31:48;;;;;;;28.03;17.63;;;3.30;99.90;;;;;;4903643;28;179027;-71
2021/01/19 03:34:14;;;;;;;27.97;18.17;;;3.30;99.90;;;;;;4904753;28;177114;-69
2021/01/19 03:36:41;;;;;;;27.67;17.77;;;3.30;99.90;;;;;;4889943;28;178577;-71
2021/01/19 03:39:08;;;;;;;27.17;18.37;;;3.20;99.90;;;;;;4889849;28;177811;-70
2021/01/19 03:41:35;;;;;;;25.47;18.13;;;3.30;99.90;;;;;;4906250;28;182778;-70
2021/01/19 03:44:01;;;;;;;30.03;18.17;;;3.30;99.90;;;;;;4906214;28;181605;-70
2021/01/19 03:46:28;;;;;;;26.33;19.00;;;3.30;99.90;;;;;;4901401;28;178421;-69
2021/01/19 03:48:54;;;;;;;25.90;17.97;;;3.30;99.90;;;;;;4905546;28;177850;-70
2021/01/19 03:51:23;;;;;;;27.20;18.17;;;3.30;99.90;;;;;;4890717;28;179676;-70
2021/01/19 03:53:50;;;;;;;27.20;17.87;;;3.30;99.90;;;;;;4889352;28;177838;-70
2021/01/19 03:56:17;;;;;;;26.30;18.10;;;3.30;99.90;;;;;;4892601;28;178301;-70
2021/01/19 03:58:43;;;;;;;27.70;16.77;;;3.30;99.90;;;;;;4889886;28;176427;-69
2021/01/19 04:01:10;;;;;;;29.13;18.67;;;3.30;99.90;;;;;;4888316;28;179213;-69
2021/01/19 04:03:36;;;;;;;26.17;17.93;;;3.30;99.90;;;;;;4888965;28;178227;-69
2021/01/19 04:06:06;;;;;;;28.13;17.70;;;3.30;99.90;;;;;;4898227;28;181288;-70
2021/01/19 04:08:33;;;;;;;23.30;16.33;;;3.30;99.90;;;;;;4889933;28;177883;-70
2021/01/19 04:11:00;;;;;;;28.57;16.90;;;3.20;99.90;;;;;;4900345;28;179235;-70
2021/01/19 04:13:27;;;;;;;28.93;18.03;;;3.30;99.90;;;;;;4888590;28;178320;-69
2021/01/19 04:15:53;;;;;;;23.43;17.63;;;3.20;99.90;;;;;;4889031;28;177802;-69
2021/01/19 04:18:20;;;;;;;26.90;18.13;;;3.30;99.90;;;;;;4888435;28;178077;-69
2021/01/19 04:20:46;;;;;;;24.43;16.60;;;3.20;99.90;;;;;;4889307;28;178800;-69
2021/01/19 04:23:14;;;;;;;25.50;16.03;;;3.20;99.90;;;;;;4907165;28;180071;-70
2021/01/19 04:25:41;;;;;;;23.63;16.33;;;3.20;99.90;;;;;;4909955;28;180091;-69
2021/01/19 04:28:08;;;;;;;27.07;17.30;;;3.20;99.90;;;;;;4906934;28;178280;-68
2021/01/19 04:30:34;;;;;;;24.63;16.53;;;3.20;99.90;;;;;;4906553;28;182568;-69
2021/01/19 04:33:00;;;;;;;26.37;16.07;;;3.20;99.90;;;;;;4895150;28;182203;-69
2021/01/19 04:35:27;;;;;;;25.50;17.03;;;3.30;99.90;;;;;;4911376;28;177861;-69
2021/01/19 04:37:53;;;;;;;23.30;16.33;;;3.20;99.90;;;;;;4906856;28;179057;-68
2021/01/19 04:40:19;;;;;;;22.70;15.80;;;3.20;99.90;;;;;;4891189;28;178759;-70
2021/01/19 04:42:45;;;;;;;26.57;16.83;;;3.20;99.90;;;;;;4893058;28;178196;-69
2021/01/19 04:45:12;;;;;;;23.80;15.67;;;3.20;99.90;;;;;;4909292;28;180024;-70
2021/01/19 04:47:39;;;;;;;25.63;16.87;;;3.20;99.90;;;;;;4904782;28;176402;-70
2021/01/19 04:50:10;;;;;;;23.70;15.97;;;3.20;99.90;;;;;;4891442;28;179353;-69
2021/01/19 04:52:45;;;;;;;24.20;16.03;;;3.20;99.90;;;;;;4903945;28;179520;-70
2021/01/19 04:55:15;;;;;;;23.33;15.80;;;3.20;99.90;;;;;;4899778;28;181673;-70
2021/01/19 04:57:42;;;;;;;25.40;15.57;;;3.20;99.90;;;;;;4891241;28;178273;-69
2021/01/19 05:00:14;;;;;;;23.03;15.63;;;3.20;99.90;;;;;;4910998;28;179626;-69
2021/01/19 05:02:43;;;;;;;24.40;16.17;;;3.20;99.90;;;;;;4907298;28;178442;-70
2021/01/19 05:05:21;;;;;;;25.00;16.70;;;3.60;99.90;;;;;;4891502;28;178678;-68
2021/01/19 05:08:01;;;;;;;26.13;16.77;;;3.20;99.90;;;;;;4898779;28;179609;-69
2021/01/19 05:10:38;;;;;;;28.43;16.93;;;3.20;99.90;;;;;;4890519;28;179826;-70
2021/01/19 05:13:14;;;;;;;25.57;16.57;;;3.20;99.90;;;;;;4899787;28;178084;-70
2021/01/19 05:15:45;;;;;;;27.30;17.73;;;3.60;99.90;;;;;;4908652;28;177951;-69
2021/01/19 05:18:13;;;;;;;22.10;15.63;;;3.20;99.90;;;;;;4898466;28;177909;-70
2021/01/19 05:20:49;;;;;;;24.53;16.70;;;3.20;99.90;;;;;;4889523;28;182689;-69
2021/01/19 05:23:24;;;;;;;26.57;16.60;;;3.20;99.90;;;;;;4899751;28;181023;-70
2021/01/19 05:25:57;;;;;;;21.83;15.20;;;3.20;99.90;;;;;;4891295;28;177959;-69
2021/01/19 05:28:37;;;;;;;23.40;16.03;;;3.20;99.90;;;;;;4910775;28;178060;-69
2021/01/19 05:31:06;;;;;;;24.23;15.43;;;3.20;99.90;;;;;;4906659;28;179261;-70
2021/01/19 05:33:34;;;;;;;22.93;15.77;;;3.20;99.90;;;;;;4890168;28;178771;-70
2021/01/19 05:36:12;;;;;;;22.33;15.53;;;3.20;99.90;;;;;;4890360;28;178375;-69
2021/01/19 05:38:50;;;;;;;23.40;16.23;;;3.20;99.90;;;;;;4890801;28;177163;-69
2021/01/19 05:41:37;;;;;;;21.63;15.10;;;3.20;99.90;;;;;;4908664;28;180111;-69
2021/01/19 05:44:25;;;;;;;21.40;14.03;;;3.20;99.90;;;;;;4898442;28;179700;-70
2021/01/19 05:46:59;;;;;;;21.50;14.43;;;3.20;99.90;;;;;;4891186;28;181149;-70
2021/01/19 05:49:29;;;;;;;22.27;14.37;;;3.20;99.90;;;;;;4904079;28;177868;-70
2021/01/19 05:52:09;;;;;;;23.40;14.17;;;3.20;99.90;;;;;;4898302;28;180481;-70
2021/01/19 05:54:40;;;;;;;17.00;13.03;;;3.10;99.90;;;;;;4891317;28;178501;-69
2021/01/19 05:57:11;;;;;;;16.97;13.03;;;3.40;99.90;;;;;;4890842;28;177903;-70
2021/01/19 05:59:45;;;;;;;18.87;13.73;;;3.10;99.90;;;;;;4904630;28;177909;-70
2021/01/19 06:02:13;;;;;;;19.40;12.97;;;3.20;99.90;;;;;;4908062;28;179402;-69
2021/01/19 06:04:48;;;;;;;17.17;12.83;;;3.10;99.90;;;;;;4906994;28;178252;-69
2021/01/19 06:07:18;;;;;;;18.00;13.17;;;3.10;99.90;;;;;;4899188;28;180176;-70
2021/01/19 06:09:45;;;;;;;18.97;13.43;;;3.30;99.90;;;;;;4903597;28;178234;-70
2021/01/19 06:12:13;;;;;;;17.90;13.10;;;3.10;99.90;;;;;;4907526;28;182472;-70
2021/01/19 06:14:45;;;;;;;18.27;13.83;;;3.10;99.90;;;;;;4890227;28;180933;-70
2021/01/19 06:17:13;;;;;;;20.07;13.10;;;3.10;99.90;;;;;;4898814;28;178730;-70
2021/01/19 06:19:41;;;;;;;18.33;13.33;;;3.10;99.90;;;;;;4890058;28;178167;-69
2021/01/19 06:22:16;;;;;;;19.17;12.93;;;3.10;99.90;;;;;;4888495;28;179125;-70
2021/01/19 06:24:45;;;;;;;17.57;12.47;;;3.10;99.90;;;;;;4895910;28;177936;-70
2021/01/19 06:27:24;;;;;;;15.43;11.73;;;3.10;99.90;;;;;;4906989;28;178072;-70
2021/01/19 06:30:00;;;;;;;15.00;11.40;;;3.10;99.90;;;;;;4890400;28;176493;-70
2021/01/19 06:32:33;;;;;;;14.47;11.07;;;3.10;99.90;;;;;;4891342;28;179309;-70
2021/01/19 06:35:20;;;;;;;15.33;11.30;;;3.10;99.90;;;;;;4908341;28;178440;-70
2021/01/19 06:37:49;;;;;;;15.70;10.70;;;3.10;99.90;;;;;;4895816;28;181172;-70
2021/01/19 06:40:21;;;;;;;13.87;10.83;;;3.10;99.90;;;;;;4893235;28;179300;-70
2021/01/19 06:42:57;;;;;;;13.93;10.10;;;3.10;99.90;;;;;;4893507;28;179445;-70
2021/01/19 06:45:24;;;;;;;13.07;10.20;;;3.10;99.90;;;;;;4905288;28;180141;-69
2021/01/19 06:47:53;;;;;;;13.63;10.10;;;3.10;99.90;;;;;;4894933;28;177916;-70
2021/01/19 06:50:22;;;;;;;13.27;9.70;;;3.10;99.90;;;;;;4895650;28;179986;-70
2021/01/19 06:53:15;;;;;;;12.27;9.30;;;3.10;99.90;;;;;;4894498;28;179257;-70
2021/01/19 06:55:51;;;;;;;13.50;9.67;;;3.10;99.90;;;;;;4906426;28;178163;-70
2021/01/19 06:58:29;;;;;;;14.53;9.27;;;3.10;99.90;;;;;;4895521;28;177929;-70
2021/01/19 07:01:00;;;;;;;16.27;11.17;;;3.10;99.90;;;;;;4891120;28;177880;-70
2021/01/19 07:03:27;;;;;;;11.87;9.27;;;3.10;99.90;;;;;;4889080;28;182222;-70
2021/01/19 07:05:59;;;;;;;10.20;8.47;;;3.10;99.90;;;;;;4902499;28;180988;-70
2021/01/19 07:08:44;;;;;;;9.13;8.17;;;3.10;99.90;;;;;;4898867;28;178283;-70
2021/01/19 07:11:35;;;;;;;14.50;8.77;;;3.40;99.90;;;;;;4908427;28;178224;-70
2021/01/19 07:14:13;;;;;;;17.73;8.90;;;3.10;99.90;;;;;;4897417;28;180376;-70
2021/01/19 07:16:56;;;;;;;10.20;7.97;;;3.10;99.90;;;;;;4910374;28;178071;-71
2021/01/19 07:19:50;;;;;;;21.97;8.37;;;3.10;99.90;;;;;;4890411;28;177877;-70
2021/01/19 07:22:30;;;;;;;11.13;8.37;;;3.10;99.90;;;;;;4893347;28;177060;-69
2021/01/19 07:24:56;;;;;;;10.10;8.03;;;3.10;99.90;;;;;;4909339;28;179238;-71
2021/01/19 07:27:24;;;;;;;8.97;7.17;;;3.10;99.90;;;;;;4907551;28;177967;-70
2021/01/19 07:29:51;;;;;;;10.40;7.70;;;3.00;99.90;;;;;;4906631;28;181742;-69
2021/01/19 07:32:24;;;;;;;10.03;7.83;;;3.10;99.90;;;;;;4896026;28;177861;-67
2021/01/19 07:34:51;;;;;;;10.60;8.13;;;3.10;99.90;;;;;;4896144;28;178823;-70
2021/01/19 07:37:32;;;;;;;11.00;7.57;;;3.10;99.90;;;;;;4890662;28;177835;-69
2021/01/19 07:39:59;;;;;;;12.47;8.30;;;3.10;99.90;;;;;;4890931;28;177810;-71
2021/01/19 07:42:26;;;;;;;10.63;7.60;;;3.10;99.90;;;;;;4904585;28;179280;-70
2021/01/19 07:44:57;;;;;;;17.33;8.43;;;3.10;99.90;;;;;;4909866;28;179050;-71
2021/01/19 07:47:40;;;;;;;10.43;8.00;;;3.10;99.90;;;;;;4900362;28;178446;-71
2021/01/19 07:50:15;;;;;;;11.10;8.43;;;3.10;99.90;;;;;;4910349;28;178424;-70
2021/01/19 07:52:44;;;;;;;11.40;8.10;;;3.60;99.90;;;;;;4897595;28;178634;-71
2021/01/19 07:55:21;;;;;;;11.27;7.70;;;3.10;99.90;;;;;;4899019;28;183895;-72
2021/01/19 07:57:52;;;;;;;11.90;8.13;;;3.10;99.90;;;;;;4911849;28;181503;-72
2021/01/19 08:00:20;;;;;;;11.20;7.70;;;3.10;99.90;;;;;;4907664;28;177918;-72
2021/01/19 08:02:47;;;;;;;10.77;7.17;;;3.10;99.90;;;;;;4897232;28;178435;-71
2021/01/19 08:05:14;;;;;;;9.33;6.73;;;3.10;99.90;;;;;;4890890;28;179772;-70
2021/01/19 08:07:44;;;;;;;11.30;7.27;;;3.10;99.90;;;;;;4890280;28;180353;-72
2021/01/19 08:10:34;;;;;;;13.03;7.20;;;3.10;99.90;;;;;;4893164;28;181953;-71
2021/01/19 08:13:02;;;;;;;8.53;6.90;;;3.10;99.90;;;;;;4895864;28;176311;-72
2021/01/19 08:15:33;;;;;;;7.37;6.57;;;3.10;99.90;;;;;;4893311;28;179371;-72
2021/01/19 08:18:04;;;;;;;11.57;6.93;;;3.10;99.90;;;;;;4900268;28;181262;-71
2021/01/19 08:20:50;;;;;;;8.70;6.70;;;3.10;99.90;;;;;;4894326;28;182013;-72
2021/01/19 08:23:20;;;;;;;9.07;7.03;;;3.10;99.90;;;;;;4899759;28;178933;-72
2021/01/19 08:25:47;;;;;;;7.33;6.10;;;3.10;99.90;;;;;;4891070;28;181309;-71
2021/01/19 08:28:14;;;;;;;8.07;6.50;;;3.10;99.90;;;;;;4899096;28;178769;-72
2021/01/19 08:30:44;;;;;;;8.37;6.60;;;3.10;99.90;;;;;;4896239;28;178931;-71
2021/01/19 08:33:13;;;;;;;7.07;6.07;;;3.10;99.90;;;;;;4896900;28;178817;-72
2021/01/19 08:35:39;;;;;;;15.13;7.10;;;3.10;99.90;;;;;;4897007;28;179345;-72
2021/01/19 08:38:06;;;;;;;10.33;6.63;;;3.10;99.90;;;;;;4890329;28;177675;-71
2021/01/19 08:40:36;;;;;;;8.53;6.47;;;3.10;99.90;;;;;;4903256;28;180210;-66
2021/01/19 08:43:06;;;;;;;8.50;6.53;;;3.10;99.90;;;;;;4892372;28;179504;-72
2021/01/19 08:45:40;;;;;;;9.17;6.40;;;3.10;99.90;;;;;;4888121;28;184661;-67
2021/01/19 08:48:08;;;;;;;9.03;6.77;;;3.10;99.90;;;;;;4897438;28;181519;-72
2021/01/19 08:50:38;;;;;;;11.20;6.37;;;3.10;99.90;;;;;;4898450;28;178521;-68
2021/01/19 08:53:08;;;;;;;7.60;6.20;;;3.10;99.90;;;;;;4900967;28;178499;-69
2021/01/19 08:55:35;;;;;;;7.33;6.23;;;3.20;99.90;;;;;;4918924;28;179855;-70
2021/01/19 08:58:01;;;;;;;12.20;6.60;;;3.20;99.90;;;;;;4894399;28;181174;-69
2021/01/19 09:00:30;;;;;;;9.17;6.43;;;3.20;99.90;;;;;;4898078;28;179963;-71
2021/01/19 09:02:58;;;;;;;7.47;6.33;;;3.20;99.90;;;;;;4908537;28;177171;-69
2021/01/19 09:05:27;;;;;;;8.23;6.17;;;3.20;99.90;;;;;;4908652;28;179547;-71
2021/01/19 09:07:54;;;;;;;9.77;6.93;;;3.20;99.90;;;;;;4905851;28;178257;-69
2021/01/19 09:10:25;;;;;;;8.40;6.60;;;3.30;99.90;;;;;;4906896;28;182939;-68
2021/01/19 09:12:53;;;;;;;8.30;6.63;;;3.20;99.90;;;;;;4906316;28;178409;-70
2021/01/19 09:15:20;;;;;;;10.13;6.67;;;3.30;99.90;;;;;;4909381;28;179414;-68
2021/01/19 09:17:51;;;;;;;10.87;7.60;;;3.30;99.90;;;;;;4902210;28;178777;-67
2021/01/19 09:20:18;;;;;;;8.63;6.40;;;3.30;99.90;;;;;;4898457;28;178098;-72
2021/01/19 09:22:44;;;;;;;7.50;6.70;;;3.30;99.90;;;;;;4901175;28;177876;-65
2021/01/19 09:25:11;;;;;;;8.17;6.50;;;3.40;99.90;;;;;;4889240;28;179232;-71
2021/01/19 09:27:39;;;;;;;9.40;7.20;;;3.30;99.90;;;;;;4892701;28;178928;-70
2021/01/19 09:30:11;;;;;;;12.27;6.57;;;3.40;99.90;;;;;;4890148;28;178351;-67
2021/01/19 09:32:39;;;;;;;8.90;7.00;;;3.40;99.90;;;;;;4908471;28;178830;-72
2021/01/19 09:35:07;;;;;;;10.57;6.90;;;3.40;99.90;;;;;;4887886;28;182619;-72
2021/01/19 09:37:33;;;;;;;8.30;6.70;;;3.40;99.90;;;;;;4889446;28;181476;-72
2021/01/19 09:40:00;;;;;;;12.90;6.70;;;3.60;99.90;;;;;;4890249;28;178442;-69
2021/01/19 09:42:27;;;;;;;8.33;6.63;;;3.40;99.90;;;;;;4889218;28;177919;-73
2021/01/19 09:44:54;;;;;;;10.57;6.60;;;3.40;99.90;;;;;;4889016;28;179857;-75
2021/01/19 09:47:25;;;;;;;7.63;6.47;;;3.40;99.90;;;;;;4900214;28;178334;-69
2021/01/19 09:49:54;;;;;;;8.80;6.23;;;3.40;99.90;;;;;;4902477;28;178030;-75
2021/01/19 09:52:30;;;;;;;8.83;6.47;;;3.40;99.90;;;;;;4894337;28;176704;-70
2021/01/19 09:55:12;;;;;;;9.27;6.80;;;3.40;99.90;;;;;;4911452;28;179030;-70
2021/01/19 09:57:39;;;;;;;9.00;6.30;;;3.50;99.90;;;;;;4911340;28;178556;-75
2021/01/19 10:00:08;;;;;;;10.43;6.73;;;3.40;99.90;;;;;;4910165;28;181128;-73
2021/01/19 10:02:38;;;;;;;8.37;6.60;;;3.50;99.90;;;;;;4911316;28;177885;-75
2021/01/19 10:05:07;;;;;;;9.43;6.33;;;3.50;99.90;;;;;;4910416;28;179124;-74
2021/01/19 10:07:34;;;;;;;9.73;6.27;;;3.50;99.90;;;;;;4910032;28;178016;-77
2021/01/19 10:10:12;;;;;;;9.67;6.47;;;3.50;99.90;;;;;;4910177;28;177933;-73
2021/01/19 10:12:39;;;;;;;9.70;6.23;;;3.50;99.90;;;;;;4911167;28;177901;-68
2021/01/19 10:15:12;;;;;;;11.30;6.33;;;3.50;99.90;;;;;;4910662;28;180950;-74
2021/01/19 10:17:39;;;;;;;7.37;5.67;;;3.50;99.90;;;;;;4911449;28;177568;-71
2021/01/19 10:20:13;;;;;;;7.60;6.00;;;3.50;99.90;;;;;;4911618;28;177858;-73
2021/01/19 10:22:42;;;;;;;8.27;6.27;;;3.50;99.90;;;;;;4910262;28;178232;-74
2021/01/19 10:25:11;;;;;;;8.47;6.00;;;3.50;99.90;;;;;;4891650;28;182466;-73
2021/01/19 10:27:43;;;;;;;9.20;5.67;;;3.50;99.90;;;;;;4890992;28;181546;-68
2021/01/19 10:30:11;;;;;;;8.30;6.27;;;3.50;99.90;;;;;;4891964;28;178336;-72
2021/01/19 10:32:48;;;;;;;11.30;6.27;;;3.50;99.90;;;;;;4891359;28;177886;-69
2021/01/19 10:35:37;;;;;;;7.27;5.93;;;3.50;99.90;;;;;;4891408;28;179053;-76
2021/01/19 10:38:06;;;;;;;7.67;5.63;;;3.50;99.90;;;;;;4891197;28;178032;-78
2021/01/19 10:40:33;;;;;;;9.03;5.93;;;3.50;99.90;;;;;;4891366;28;177821;-71
2021/01/19 10:43:01;;;;;;;8.27;6.00;;;3.50;99.90;;;;;;4891358;28;177637;-79
2021/01/19 10:45:28;;;;;;;7.60;5.67;;;3.50;99.90;;;;;;4891441;28;179610;-80
2021/01/19 10:47:58;;;;;;;9.23;5.40;;;3.40;99.90;;;;;;4894483;28;178469;-73
2021/01/19 10:50:27;;;;;;;7.17;5.30;;;3.50;99.90;;;;;;4904258;28;181403;-77
2021/01/19 10:52:59;;;;;;;8.17;5.20;;;3.40;99.90;;;;;;4909227;28;178347;-78
2021/01/19 10:55:26;;;;;;;11.53;5.07;;;3.40;99.90;;;;;;4910426;28;179686;-76
2021/01/19 10:58:00;;;;;;;8.67;4.87;;;3.40;99.90;;;;;;4905630;28;178521;-81
2021/01/19 11:00:27;;;;;;;7.50;5.00;;;3.50;99.90;;;;;;4897743;28;178732;-70
2021/01/19 11:02:54;;;;;;;7.87;4.97;;;3.40;99.90;;;;;;4905163;28;177996;-79
2021/01/19 11:05:21;;;;;;;6.03;4.73;;;3.50;99.90;;;;;;4889414;28;180190;-79
2021/01/19 11:07:49;;;;;;;8.30;4.77;;;3.40;99.90;;;;;;4910278;28;180796;-77
2021/01/19 11:10:17;;;;;;;8.47;5.00;;;3.40;99.90;;;;;;4891454;28;178001;-72
2021/01/19 11:12:45;;;;;;;7.37;5.07;;;3.40;99.90;;;;;;4891019;28;177887;-76
2021/01/19 11:15:12;;;;;;;8.63;5.00;;;3.40;99.90;;;;;;4889243;28;183967;-76
2021/01/19 11:17:39;;;;;;;8.10;4.47;;;3.40;99.90;;;;;;4892587;28;181404;-73
2021/01/19 11:20:10;;;;;;;7.40;5.23;;;3.40;99.90;;;;;;4902264;28;179457;-79
2021/01/19 11:22:37;;;;;;;6.90;3.90;;;3.40;99.90;;;;;;4893344;28;179105;-64
2021/01/19 11:25:05;;;;;;;7.90;5.77;;;2.70;99.90;;;;;;4890917;28;178647;-78
2021/01/19 11:27:36;;;;;;;7.57;4.00;;;3.40;99.90;;;;;;4890593;28;179927;-73
2021/01/19 11:30:03;;;;;;;4.67;4.17;;;3.40;99.90;;;;;;4901860;28;178273;-73
2021/01/19 11:32:29;;;;;;;6.87;3.50;;;3.30;99.90;;;;;;4911480;28;176428;-80
2021/01/19 11:34:56;;;;;;;5.00;4.07;;;3.30;99.90;;;;;;4908885;28;179718;-73
2021/01/19 11:37:22;;;;;;;5.47;4.00;;;3.30;99.90;;;;;;4909152;28;178260;-69
2021/01/19 11:39:48;;;;;;;8.37;4.67;;;3.20;99.90;;;;;;4890180;28;181169;-67
2021/01/19 11:42:15;;;;;;;6.97;4.10;;;3.10;99.90;;;;;;4890145;28;177919;-74
2021/01/19 11:44:41;;;;;;;4.73;3.53;;;3.10;99.90;;;;;;4898802;28;180563;-70
2021/01/19 11:47:07;;;;;;;5.37;3.97;;;3.10;99.90;;;;;;4906735;28;177949;-74
2021/01/19 11:49:46;;;;;;;5.30;3.40;;;3.00;99.90;;;;;;4903696;28;177959;-73
2021/01/19 11:52:12;;;;;;;6.90;4.80;;;3.00;99.90;;;;;;4891078;28;178265;-73
2021/01/19 11:54:39;;;;;;;7.00;5.83;;;2.90;99.90;;;;;;4890581;28;178650;-77
2021/01/19 11:57:08;;;;;;;5.37;4.60;;;2.80;99.90;;;;;;4891459;28;177731;-76
2021/01/19 11:59:35;;;;;;;4.10;3.70;;;2.80;99.90;;;;;;4890999;28;178978;-79
2021/01/19 12:02:03;;;;;;;6.67;5.70;;;2.80;99.90;;;;;;4893213;28;177844;-80
2021/01/19 12:04:30;;;;;;;7.20;5.47;;;2.90;99.90;;;;;;4907967;28;182782;-77
2021/01/19 12:07:01;;;;;;;6.50;5.00;;;2.70;99.90;;;;;;4908038;28;180223;-73
2021/01/19 12:09:28;;;;;;;5.40;4.90;;;3.00;99.90;;;;;;4890141;28;178328;-79
2021/01/19 12:11:54;;;;;;;6.93;4.90;;;2.60;99.90;;;;;;4891089;28;178506;-74
2021/01/19 12:14:22;;;;;;;5.50;5.00;;;2.60;99.90;;;;;;4894482;28;179559;-80
2021/01/19 12:16:53;;;;;;;7.53;5.53;;;2.50;99.90;;;;;;4909812;28;178231;-77
2021/01/19 12:19:19;;;;;;;6.93;4.33;;;2.50;99.90;;;;;;4906938;28;178462;-77
2021/01/19 12:21:50;;;;;;;9.77;5.03;;;2.40;99.90;;;;;;4890130;28;176334;-80
2021/01/19 12:24:17;;;;;;;6.67;5.93;;;2.40;99.90;;;;;;4889395;28;179809;-80
2021/01/19 12:26:52;;;;;;;5.77;5.17;;;2.40;99.90;;;;;;4908068;28;178653;-75
2021/01/19 12:29:19;;;;;;;5.53;4.63;;;2.40;99.90;;;;;;4887771;28;181607;-75
2021/01/19 12:31:46;;;;;;;6.73;5.83;;;2.40;99.90;;;;;;4901931;28;180535;-78
2021/01/19 12:34:13;;;;;;;6.70;5.93;;;2.30;99.90;;;;;;4899004;28;178741;-73
2021/01/19 12:36:40;;;;;;;6.13;5.50;;;2.30;99.90;;;;;;4908359;28;179368;-77
2021/01/19 12:39:06;;;;;;;5.27;4.67;;;2.30;99.90;;;;;;4905361;28;177870;-79
2021/01/19 12:41:33;;;;;;;6.03;4.90;;;2.20;99.90;;;;;;4908335;28;178285;-73
2021/01/19 12:44:05;;;;;;;4.97;4.53;;;2.20;99.90;;;;;;4894975;28;181397;-74
2021/01/19 12:46:33;;;;;;;5.93;4.60;;;2.80;99.90;;;;;;4890431;28;179100;-73
2021/01/19 12:49:00;;;;;;;5.77;4.73;;;2.10;99.90;;;;;;4891262;28;178143;-77
2021/01/19 12:51:26;;;;;;;5.87;4.57;;;2.10;99.90;;;;;;4889854;28;178945;-73